sensor_id;sensor_type;location;lat;lon;timestamp;temperature;humidity
22526;DHT22;11429;50.842;4.386;2023-02-01T00:00:24;8.10;99.90
22526;DHT22;11429;50.842;4.386;2023-02-01T00:02:50;8.30;99.90
22526;DHT22;11429;50.842;4.386;2023-02-01T00:05:15;8.40;99.90
22526;DHT22;11429;50.842;4.386;2023-02-01T00:07:41;8.20;99.90
22526;DHT22;11429;50.842;4.386;2023-02-01T00:10:08;8.00;99.90
22526;DHT22;11429;50.842;4.386;2023-02-01T00:12:33;7.80;99.90
22526;DHT22;11429;50.842;4.386;2023-02-01T00:14:59;7.80;99.90
22526;DHT22;11429;50.842;4.386;2023-02-01T00:17:25;7.90;99.90
22526;DHT22;11429;50.842;4.386;2023-02-01T00:19:51;7.90;99.90
22526;DHT22;11429;50.842;4.386;2023-02-01T00:22:16;8.00;99.90
22526;DHT22;11429;50.842;4.386;2023-02-01T00:24:42;8.10;99.90
22526;DHT22;11429;50.842;4.386;2023-02-01T00:27:07;8.20;99.90
22526;DHT22;11429;50.842;4.386;2023-02-01T00:29:33;7.90;99.90
22526;DHT22;11429;50.842;4.386;2023-02-01T00:31:59;7.80;99.90
22526;DHT22;11429;50.842;4.386;2023-02-01T00:34:24;7.60;99.90
22526;DHT22;11429;50.842;4.386;2023-02-01T00:36:50;7.60;99.90
22526;DHT22;11429;50.842;4.386;2023-02-01T00:39:16;7.70;99.90
22526;DHT22;11429;50.842;4.386;2023-02-01T00:41:42;7.80;99.90
22526;DHT22;11429;50.842;4.386;2023-02-01T00:44:08;7.80;99.90
22526;DHT22;11429;50.842;4.386;2023-02-01T00:46:33;7.80;99.90
22526;DHT22;11429;50.842;4.386;2023-02-01T00:48:59;7.90;99.90
22526;DHT22;11429;50.842;4.386;2023-02-01T00:51:27;7.90;99.90
22526;DHT22;11429;50.842;4.386;2023-02-01T00:53:53;7.80;99.90
22526;DHT22;11429;50.842;4.386;2023-02-01T00:56:19;7.80;99.90
22526;DHT22;11429;50.842;4.386;2023-02-01T00:58:44;7.70;99.90
22526;DHT22;11429;50.842;4.386;2023-02-01T01:01:16;7.70;99.90
22526;DHT22;11429;50.842;4.386;2023-02-01T01:03:45;7.80;99.90
22526;DHT22;11429;50.842;4.386;2023-02-01T01:06:13;7.90;99.90
22526;DHT22;11429;50.842;4.386;2023-02-01T01:08:40;8.20;99.90
22526;DHT22;11429;50.842;4.386;2023-02-01T01:11:07;8.10;99.90
22526;DHT22;11429;50.842;4.386;2023-02-01T01:13:34;7.90;99.90
22526;DHT22;11429;50.842;4.386;2023-02-01T01:16:01;7.80;99.90
22526;DHT22;11429;50.842;4.386;2023-02-01T01:18:29;7.70;99.90
22526;DHT22;11429;50.842;4.386;2023-02-01T01:20:55;7.60;99.90
22526;DHT22;11429;50.842;4.386;2023-02-01T01:23:20;7.60;99.90
22526;DHT22;11429;50.842;4.386;2023-02-01T01:25:46;7.60;99.90
22526;DHT22;11429;50.842;4.386;2023-02-01T01:28:11;7.70;99.90
22526;DHT22;11429;50.842;4.386;2023-02-01T01:30:37;7.70;99.90
22526;DHT22;11429;50.842;4.386;2023-02-01T01:33:03;7.80;99.90
22526;DHT22;11429;50.842;4.386;2023-02-01T01:35:30;7.70;99.90
22526;DHT22;11429;50.842;4.386;2023-02-01T01:37:56;7.90;99.90
22526;DHT22;11429;50.842;4.386;2023-02-01T01:40:22;7.80;99.90
22526;DHT22;11429;50.842;4.386;2023-02-01T01:42:48;7.70;99.90
22526;DHT22;11429;50.842;4.386;2023-02-01T01:45:31;7.70;99.90
22526;DHT22;11429;50.842;4.386;2023-02-01T01:48:05;7.70;99.90
22526;DHT22;11429;50.842;4.386;2023-02-01T01:50:35;7.60;99.90
22526;DHT22;11429;50.842;4.386;2023-02-01T01:53:04;7.60;99.90
22526;DHT22;11429;50.842;4.386;2023-02-01T01:55:32;7.60;99.90
22526;DHT22;11429;50.842;4.386;2023-02-01T01:58:03;7.60;99.90
22526;DHT22;11429;50.842;4.386;2023-02-01T02:00:31;7.70;99.90
22526;DHT22;11429;50.842;4.386;2023-02-01T02:03:03;7.60;99.90
22526;DHT22;11429;50.842;4.386;2023-02-01T02:05:32;7.60;99.90
22526;DHT22;11429;50.842;4.386;2023-02-01T02:07:59;7.70;99.90
22526;DHT22;11429;50.842;4.386;2023-02-01T02:10:28;7.70;99.90
22526;DHT22;11429;50.842;4.386;2023-02-01T02:13:14;7.70;99.90
22526;DHT22;11429;50.842;4.386;2023-02-01T02:15:45;7.70;99.90
22526;DHT22;11429;50.842;4.386;2023-02-01T02:18:36;7.70;99.90
22526;DHT22;11429;50.842;4.386;2023-02-01T02:24:18;7.50;99.90
22526;DHT22;11429;50.842;4.386;2023-02-01T02:35:47;7.50;99.90
22526;DHT22;11429;50.842;4.386;2023-02-01T02:38:31;7.40;99.90
22526;DHT22;11429;50.842;4.386;2023-02-01T02:41:18;7.40;99.90
22526;DHT22;11429;50.842;4.386;2023-02-01T02:44:21;7.40;99.90
22526;DHT22;11429;50.842;4.386;2023-02-01T02:47:16;7.70;99.90
22526;DHT22;11429;50.842;4.386;2023-02-01T02:49:54;7.70;99.90
22526;DHT22;11429;50.842;4.386;2023-02-01T02:52:47;7.60;99.90
22526;DHT22;11429;50.842;4.386;2023-02-01T02:55:35;7.60;99.90
22526;DHT22;11429;50.842;4.386;2023-02-01T02:58:04;7.60;99.90
22526;DHT22;11429;50.842;4.386;2023-02-01T03:00:50;7.50;99.90
22526;DHT22;11429;50.842;4.386;2023-02-01T03:03:39;7.40;99.90
22526;DHT22;11429;50.842;4.386;2023-02-01T03:06:24;7.30;99.90
22526;DHT22;11429;50.842;4.386;2023-02-01T03:08:54;7.30;99.90
22526;DHT22;11429;50.842;4.386;2023-02-01T03:11:23;7.30;99.90
22526;DHT22;11429;50.842;4.386;2023-02-01T03:14:10;7.30;99.90
22526;DHT22;11429;50.842;4.386;2023-02-01T03:16:41;7.20;99.90
22526;DHT22;11429;50.842;4.386;2023-02-01T03:19:29;7.20;99.90
22526;DHT22;11429;50.842;4.386;2023-02-01T03:21:59;7.10;99.90
22526;DHT22;11429;50.842;4.386;2023-02-01T03:24:34;7.20;99.90
22526;DHT22;11429;50.842;4.386;2023-02-01T03:27:06;7.20;99.90
22526;DHT22;11429;50.842;4.386;2023-02-01T03:29:55;7.20;99.90
22526;DHT22;11429;50.842;4.386;2023-02-01T03:32:22;7.10;99.90
22526;DHT22;11429;50.842;4.386;2023-02-01T03:34:48;7.10;99.90
22526;DHT22;11429;50.842;4.386;2023-02-01T03:37:25;7.20;99.90
22526;DHT22;11429;50.842;4.386;2023-02-01T03:39:59;7.20;99.90
22526;DHT22;11429;50.842;4.386;2023-02-01T03:42:38;7.10;99.90
22526;DHT22;11429;50.842;4.386;2023-02-01T03:45:11;7.10;99.90
22526;DHT22;11429;50.842;4.386;2023-02-01T03:47:43;7.10;99.90
22526;DHT22;11429;50.842;4.386;2023-02-01T03:50:14;7.10;99.90
22526;DHT22;11429;50.842;4.386;2023-02-01T03:52:47;7.20;99.90
22526;DHT22;11429;50.842;4.386;2023-02-01T03:55:15;7.10;99.90
22526;DHT22;11429;50.842;4.386;2023-02-01T03:57:46;7.00;99.90
22526;DHT22;11429;50.842;4.386;2023-02-01T04:00:23;7.00;99.90
22526;DHT22;11429;50.842;4.386;2023-02-01T04:02:49;7.00;99.90
22526;DHT22;11429;50.842;4.386;2023-02-01T04:05:15;7.20;99.90
22526;DHT22;11429;50.842;4.386;2023-02-01T04:07:42;7.10;99.90
22526;DHT22;11429;50.842;4.386;2023-02-01T04:10:08;6.90;99.90
22526;DHT22;11429;50.842;4.386;2023-02-01T04:12:35;6.90;99.90
22526;DHT22;11429;50.842;4.386;2023-02-01T04:15:00;6.80;99.90
22526;DHT22;11429;50.842;4.386;2023-02-01T04:17:26;6.70;99.90
22526;DHT22;11429;50.842;4.386;2023-02-01T04:19:52;6.80;99.90
22526;DHT22;11429;50.842;4.386;2023-02-01T04:22:17;6.70;99.90
22526;DHT22;11429;50.842;4.386;2023-02-01T04:24:43;6.60;99.90
22526;DHT22;11429;50.842;4.386;2023-02-01T04:27:09;6.60;99.90
22526;DHT22;11429;50.842;4.386;2023-02-01T04:29:34;6.60;99.90
22526;DHT22;11429;50.842;4.386;2023-02-01T04:32:00;6.60;99.90
22526;DHT22;11429;50.842;4.386;2023-02-01T04:34:25;6.50;99.90
22526;DHT22;11429;50.842;4.386;2023-02-01T04:36:51;6.50;99.90
22526;DHT22;11429;50.842;4.386;2023-02-01T04:39:17;6.50;99.90
22526;DHT22;11429;50.842;4.386;2023-02-01T04:41:43;6.50;99.90
22526;DHT22;11429;50.842;4.386;2023-02-01T04:44:16;6.60;99.90
22526;DHT22;11429;50.842;4.386;2023-02-01T04:46:43;6.60;99.90
22526;DHT22;11429;50.842;4.386;2023-02-01T04:49:09;6.40;99.90
22526;DHT22;11429;50.842;4.386;2023-02-01T04:51:35;6.40;99.90
22526;DHT22;11429;50.842;4.386;2023-02-01T04:54:01;6.60;99.90
22526;DHT22;11429;50.842;4.386;2023-02-01T04:56:27;6.50;99.90
22526;DHT22;11429;50.842;4.386;2023-02-01T04:58:52;6.40;99.90
22526;DHT22;11429;50.842;4.386;2023-02-01T05:01:18;6.20;99.90
22526;DHT22;11429;50.842;4.386;2023-02-01T05:03:44;6.10;99.90
22526;DHT22;11429;50.842;4.386;2023-02-01T05:06:10;6.10;99.90
22526;DHT22;11429;50.842;4.386;2023-02-01T05:08:36;6.00;99.90
22526;DHT22;11429;50.842;4.386;2023-02-01T05:11:01;6.10;99.90
22526;DHT22;11429;50.842;4.386;2023-02-01T05:13:30;6.10;99.90
22526;DHT22;11429;50.842;4.386;2023-02-01T05:16:14;6.10;99.90
22526;DHT22;11429;50.842;4.386;2023-02-01T05:18:41;6.10;99.90
22526;DHT22;11429;50.842;4.386;2023-02-01T05:21:06;6.10;99.90
22526;DHT22;11429;50.842;4.386;2023-02-01T05:23:32;6.10;99.90
22526;DHT22;11429;50.842;4.386;2023-02-01T05:26:18;6.10;99.90
22526;DHT22;11429;50.842;4.386;2023-02-01T05:28:43;5.90;99.90
22526;DHT22;11429;50.842;4.386;2023-02-01T05:31:10;6.00;99.90
22526;DHT22;11429;50.842;4.386;2023-02-01T05:33:36;6.00;99.90
22526;DHT22;11429;50.842;4.386;2023-02-01T05:36:01;6.00;99.90
22526;DHT22;11429;50.842;4.386;2023-02-01T05:38:27;6.00;99.90
22526;DHT22;11429;50.842;4.386;2023-02-01T05:40:55;5.90;99.90
22526;DHT22;11429;50.842;4.386;2023-02-01T05:43:21;6.00;99.90
22526;DHT22;11429;50.842;4.386;2023-02-01T05:45:46;6.00;99.90
22526;DHT22;11429;50.842;4.386;2023-02-01T05:48:12;5.80;99.90
22526;DHT22;11429;50.842;4.386;2023-02-01T05:50:37;5.80;99.90
22526;DHT22;11429;50.842;4.386;2023-02-01T05:53:03;5.70;99.90
22526;DHT22;11429;50.842;4.386;2023-02-01T05:55:29;5.70;99.90
22526;DHT22;11429;50.842;4.386;2023-02-01T05:57:54;5.70;99.90
22526;DHT22;11429;50.842;4.386;2023-02-01T06:00:20;5.70;99.90
22526;DHT22;11429;50.842;4.386;2023-02-01T06:02:46;5.60;99.90
22526;DHT22;11429;50.842;4.386;2023-02-01T06:05:12;5.60;99.90
22526;DHT22;11429;50.842;4.386;2023-02-01T06:07:38;5.50;99.90
22526;DHT22;11429;50.842;4.386;2023-02-01T06:10:04;5.50;99.90
22526;DHT22;11429;50.842;4.386;2023-02-01T06:12:30;5.50;99.90
22526;DHT22;11429;50.842;4.386;2023-02-01T06:14:56;5.50;99.90
22526;DHT22;11429;50.842;4.386;2023-02-01T06:17:21;5.60;99.90
22526;DHT22;11429;50.842;4.386;2023-02-01T06:19:53;5.60;99.90
22526;DHT22;11429;50.842;4.386;2023-02-01T06:22:19;5.50;99.90
22526;DHT22;11429;50.842;4.386;2023-02-01T06:24:44;5.60;99.90
22526;DHT22;11429;50.842;4.386;2023-02-01T06:27:13;5.50;99.90
22526;DHT22;11429;50.842;4.386;2023-02-01T06:29:40;5.50;99.90
22526;DHT22;11429;50.842;4.386;2023-02-01T06:32:06;5.50;99.90
22526;DHT22;11429;50.842;4.386;2023-02-01T06:34:32;5.60;99.90
22526;DHT22;11429;50.842;4.386;2023-02-01T06:37:04;5.60;99.90
22526;DHT22;11429;50.842;4.386;2023-02-01T06:39:29;5.60;99.90
22526;DHT22;11429;50.842;4.386;2023-02-01T06:41:55;5.50;99.90
22526;DHT22;11429;50.842;4.386;2023-02-01T06:44:21;5.50;99.90
22526;DHT22;11429;50.842;4.386;2023-02-01T06:46:46;5.50;99.90
22526;DHT22;11429;50.842;4.386;2023-02-01T06:49:12;5.60;99.90
22526;DHT22;11429;50.842;4.386;2023-02-01T06:51:38;5.50;99.90
22526;DHT22;11429;50.842;4.386;2023-02-01T06:54:04;5.50;99.90
22526;DHT22;11429;50.842;4.386;2023-02-01T06:56:29;5.60;99.90
22526;DHT22;11429;50.842;4.386;2023-02-01T06:58:57;5.50;99.90
22526;DHT22;11429;50.842;4.386;2023-02-01T07:01:22;5.60;99.90
22526;DHT22;11429;50.842;4.386;2023-02-01T07:03:50;5.60;99.90
22526;DHT22;11429;50.842;4.386;2023-02-01T07:06:17;5.70;99.90
22526;DHT22;11429;50.842;4.386;2023-02-01T07:08:42;5.80;99.90
22526;DHT22;11429;50.842;4.386;2023-02-01T07:11:11;5.70;99.90
22526;DHT22;11429;50.842;4.386;2023-02-01T07:13:37;5.70;99.90
22526;DHT22;11429;50.842;4.386;2023-02-01T07:16:06;5.50;99.90
22526;DHT22;11429;50.842;4.386;2023-02-01T07:18:32;5.50;99.90
22526;DHT22;11429;50.842;4.386;2023-02-01T07:20:59;5.50;99.90
22526;DHT22;11429;50.842;4.386;2023-02-01T07:23:25;5.50;99.90
22526;DHT22;11429;50.842;4.386;2023-02-01T07:25:58;5.60;99.90
22526;DHT22;11429;50.842;4.386;2023-02-01T07:28:24;5.60;99.90
22526;DHT22;11429;50.842;4.386;2023-02-01T07:30:50;5.70;99.90
22526;DHT22;11429;50.842;4.386;2023-02-01T07:33:22;5.80;99.90
22526;DHT22;11429;50.842;4.386;2023-02-01T07:35:50;5.90;99.90
22526;DHT22;11429;50.842;4.386;2023-02-01T07:38:16;6.00;99.90
22526;DHT22;11429;50.842;4.386;2023-02-01T07:40:42;6.00;99.90
22526;DHT22;11429;50.842;4.386;2023-02-01T07:43:08;5.90;99.90
22526;DHT22;11429;50.842;4.386;2023-02-01T07:45:35;5.80;99.90
22526;DHT22;11429;50.842;4.386;2023-02-01T07:48:01;6.00;99.90
22526;DHT22;11429;50.842;4.386;2023-02-01T07:50:26;6.00;99.90
22526;DHT22;11429;50.842;4.386;2023-02-01T07:52:52;6.20;99.90
22526;DHT22;11429;50.842;4.386;2023-02-01T07:55:19;6.20;99.90
22526;DHT22;11429;50.842;4.386;2023-02-01T07:57:45;6.30;99.90
22526;DHT22;11429;50.842;4.386;2023-02-01T08:00:11;6.30;99.90
22526;DHT22;11429;50.842;4.386;2023-02-01T08:02:58;6.30;99.90
22526;DHT22;11429;50.842;4.386;2023-02-01T08:05:24;6.20;99.90
22526;DHT22;11429;50.842;4.386;2023-02-01T08:07:50;6.00;99.90
22526;DHT22;11429;50.842;4.386;2023-02-01T08:10:17;6.10;99.90
22526;DHT22;11429;50.842;4.386;2023-02-01T08:12:43;6.30;99.90
22526;DHT22;11429;50.842;4.386;2023-02-01T08:15:16;6.30;99.90
22526;DHT22;11429;50.842;4.386;2023-02-01T08:17:49;6.40;99.90
22526;DHT22;11429;50.842;4.386;2023-02-01T08:20:15;6.40;99.90
22526;DHT22;11429;50.842;4.386;2023-02-01T08:22:41;6.30;99.90
22526;DHT22;11429;50.842;4.386;2023-02-01T08:25:07;6.30;99.90
22526;DHT22;11429;50.842;4.386;2023-02-01T08:27:34;6.50;99.90
22526;DHT22;11429;50.842;4.386;2023-02-01T08:29:59;6.40;99.90
22526;DHT22;11429;50.842;4.386;2023-02-01T08:32:26;6.40;99.90
22526;DHT22;11429;50.842;4.386;2023-02-01T08:34:52;6.40;99.90
22526;DHT22;11429;50.842;4.386;2023-02-01T08:37:18;6.40;99.90
22526;DHT22;11429;50.842;4.386;2023-02-01T08:39:43;6.50;99.90
22526;DHT22;11429;50.842;4.386;2023-02-01T08:42:10;6.50;99.90
22526;DHT22;11429;50.842;4.386;2023-02-01T08:44:55;6.60;99.90
22526;DHT22;11429;50.842;4.386;2023-02-01T08:47:22;6.50;99.90
22526;DHT22;11429;50.842;4.386;2023-02-01T08:49:48;6.70;99.90
22526;DHT22;11429;50.842;4.386;2023-02-01T08:52:14;6.80;99.90
22526;DHT22;11429;50.842;4.386;2023-02-01T08:54:39;6.90;99.90
22526;DHT22;11429;50.842;4.386;2023-02-01T08:57:07;6.90;99.90
22526;DHT22;11429;50.842;4.386;2023-02-01T08:59:34;6.90;99.90
22526;DHT22;11429;50.842;4.386;2023-02-01T09:02:00;7.00;99.90
22526;DHT22;11429;50.842;4.386;2023-02-01T09:04:26;7.10;99.90
22526;DHT22;11429;50.842;4.386;2023-02-01T09:06:52;7.10;99.90
22526;DHT22;11429;50.842;4.386;2023-02-01T09:09:22;7.10;99.90
22526;DHT22;11429;50.842;4.386;2023-02-01T09:11:47;7.20;99.90
22526;DHT22;11429;50.842;4.386;2023-02-01T09:14:13;7.30;99.90
22526;DHT22;11429;50.842;4.386;2023-02-01T09:16:39;7.40;99.90
22526;DHT22;11429;50.842;4.386;2023-02-01T09:19:05;7.60;99.90
22526;DHT22;11429;50.842;4.386;2023-02-01T09:21:30;7.80;99.90
22526;DHT22;11429;50.842;4.386;2023-02-01T09:23:57;7.80;99.90
22526;DHT22;11429;50.842;4.386;2023-02-01T09:26:23;7.70;99.90
22526;DHT22;11429;50.842;4.386;2023-02-01T09:28:48;7.80;99.90
22526;DHT22;11429;50.842;4.386;2023-02-01T09:31:14;8.00;99.90
22526;DHT22;11429;50.842;4.386;2023-02-01T09:33:41;8.20;99.90
22526;DHT22;11429;50.842;4.386;2023-02-01T09:36:07;8.30;99.90
22526;DHT22;11429;50.842;4.386;2023-02-01T09:38:33;8.60;99.90
22526;DHT22;11429;50.842;4.386;2023-02-01T09:40:58;8.60;99.90
22526;DHT22;11429;50.842;4.386;2023-02-01T09:46:37;8.60;99.90
22526;DHT22;11429;50.842;4.386;2023-02-01T09:49:20;8.70;99.90
22526;DHT22;11429;50.842;4.386;2023-02-01T09:51:49;8.90;99.90
22526;DHT22;11429;50.842;4.386;2023-02-01T09:54:26;9.40;99.90
22526;DHT22;11429;50.842;4.386;2023-02-01T09:57:04;9.50;99.90
22526;DHT22;11429;50.842;4.386;2023-02-01T09:59:34;9.60;99.90
22526;DHT22;11429;50.842;4.386;2023-02-01T10:02:03;9.90;99.90
22526;DHT22;11429;50.842;4.386;2023-02-01T10:04:30;10.50;99.90
22526;DHT22;11429;50.842;4.386;2023-02-01T10:07:20;11.30;99.90
22526;DHT22;11429;50.842;4.386;2023-02-01T10:15:28;11.70;99.90
22526;DHT22;11429;50.842;4.386;2023-02-01T10:18:21;12.00;99.90
22526;DHT22;11429;50.842;4.386;2023-02-01T10:21:32;11.50;99.90
22526;DHT22;11429;50.842;4.386;2023-02-01T10:27:21;11.90;99.90
22526;DHT22;11429;50.842;4.386;2023-02-01T10:30:01;11.40;99.90
22526;DHT22;11429;50.842;4.386;2023-02-01T10:32:34;11.50;99.90
22526;DHT22;11429;50.842;4.386;2023-02-01T10:35:29;11.80;99.90
22526;DHT22;11429;50.842;4.386;2023-02-01T10:38:00;11.80;99.90
22526;DHT22;11429;50.842;4.386;2023-02-01T10:40:27;11.70;99.90
22526;DHT22;11429;50.842;4.386;2023-02-01T10:42:57;11.60;99.90
22526;DHT22;11429;50.842;4.386;2023-02-01T10:45:26;11.80;99.90
22526;DHT22;11429;50.842;4.386;2023-02-01T10:47:55;11.70;99.90
22526;DHT22;11429;50.842;4.386;2023-02-01T10:50:38;11.80;99.90
22526;DHT22;11429;50.842;4.386;2023-02-01T10:53:21;11.60;99.90
22526;DHT22;11429;50.842;4.386;2023-02-01T10:55:51;11.60;99.90
22526;DHT22;11429;50.842;4.386;2023-02-01T10:58:21;11.60;99.90
22526;DHT22;11429;50.842;4.386;2023-02-01T11:00:57;11.80;99.90
22526;DHT22;11429;50.842;4.386;2023-02-01T11:08:53;11.50;99.90
22526;DHT22;11429;50.842;4.386;2023-02-01T11:11:20;11.30;99.90
22526;DHT22;11429;50.842;4.386;2023-02-01T11:13:58;11.20;99.90
22526;DHT22;11429;50.842;4.386;2023-02-01T11:17:00;11.20;99.90
22526;DHT22;11429;50.842;4.386;2023-02-01T11:19:28;11.60;99.90
22526;DHT22;11429;50.842;4.386;2023-02-01T11:21:57;11.50;99.90
22526;DHT22;11429;50.842;4.386;2023-02-01T11:24:29;11.20;99.90
22526;DHT22;11429;50.842;4.386;2023-02-01T11:26:58;11.60;99.90
22526;DHT22;11429;50.842;4.386;2023-02-01T11:29:26;11.90;99.90
22526;DHT22;11429;50.842;4.386;2023-02-01T11:31:59;12.30;99.90
22526;DHT22;11429;50.842;4.386;2023-02-01T11:34:31;12.50;99.90
22526;DHT22;11429;50.842;4.386;2023-02-01T11:37:00;12.20;99.90
22526;DHT22;11429;50.842;4.386;2023-02-01T11:39:33;12.00;99.90
22526;DHT22;11429;50.842;4.386;2023-02-01T11:46:54;11.20;99.90
22526;DHT22;11429;50.842;4.386;2023-02-01T12:05:49;11.60;99.90
22526;DHT22;11429;50.842;4.386;2023-02-01T12:13:54;12.20;99.90
22526;DHT22;11429;50.842;4.386;2023-02-01T12:22:39;11.60;99.90
22526;DHT22;11429;50.842;4.386;2023-02-01T12:25:37;11.80;99.90
22526;DHT22;11429;50.842;4.386;2023-02-01T12:36:52;13.10;99.90
22526;DHT22;11429;50.842;4.386;2023-02-01T12:39:30;12.60;99.90
22526;DHT22;11429;50.842;4.386;2023-02-01T12:44:37;12.60;99.90
22526;DHT22;11429;50.842;4.386;2023-02-01T12:47:14;12.90;99.90
22526;DHT22;11429;50.842;4.386;2023-02-01T12:49:48;12.90;99.90
22526;DHT22;11429;50.842;4.386;2023-02-01T12:52:27;12.90;99.90
22526;DHT22;11429;50.842;4.386;2023-02-01T12:57:37;13.00;99.90
22526;DHT22;11429;50.842;4.386;2023-02-01T13:00:43;12.70;99.90
22526;DHT22;11429;50.842;4.386;2023-02-01T13:06:15;13.00;99.90
22526;DHT22;11429;50.842;4.386;2023-02-01T13:11:38;13.20;99.90
22526;DHT22;11429;50.842;4.386;2023-02-01T13:16:48;12.90;99.90
22526;DHT22;11429;50.842;4.386;2023-02-01T13:21:55;12.90;99.90
22526;DHT22;11429;50.842;4.386;2023-02-01T13:24:43;12.70;99.90
22526;DHT22;11429;50.842;4.386;2023-02-01T13:27:14;12.50;99.90
22526;DHT22;11429;50.842;4.386;2023-02-01T13:29:53;12.60;99.90
22526;DHT22;11429;50.842;4.386;2023-02-01T13:43:29;12.20;99.90
22526;DHT22;11429;50.842;4.386;2023-02-01T13:46:04;12.10;99.90
22526;DHT22;11429;50.842;4.386;2023-02-01T13:48:59;12.10;99.90
22526;DHT22;11429;50.842;4.386;2023-02-01T13:51:34;12.20;99.90
22526;DHT22;11429;50.842;4.386;2023-02-01T13:54:01;12.30;99.90
22526;DHT22;11429;50.842;4.386;2023-02-01T13:56:27;12.30;99.90
22526;DHT22;11429;50.842;4.386;2023-02-01T13:58:53;12.30;99.90
22526;DHT22;11429;50.842;4.386;2023-02-01T14:11:46;12.00;99.90
22526;DHT22;11429;50.842;4.386;2023-02-01T14:21:53;11.80;99.90
22526;DHT22;11429;50.842;4.386;2023-02-01T14:24:34;11.80;99.90
22526;DHT22;11429;50.842;4.386;2023-02-01T14:27:02;11.70;99.90
22526;DHT22;11429;50.842;4.386;2023-02-01T14:29:39;11.80;99.90
22526;DHT22;11429;50.842;4.386;2023-02-01T14:32:20;11.70;99.90
22526;DHT22;11429;50.842;4.386;2023-02-01T14:40:00;11.50;99.90
22526;DHT22;11429;50.842;4.386;2023-02-01T14:55:44;11.10;99.90
22526;DHT22;11429;50.842;4.386;2023-02-01T15:01:13;11.10;99.90
22526;DHT22;11429;50.842;4.386;2023-02-01T15:04:15;11.10;99.90
22526;DHT22;11429;50.842;4.386;2023-02-01T15:06:49;11.10;99.90
22526;DHT22;11429;50.842;4.386;2023-02-01T15:09:37;11.10;99.90
22526;DHT22;11429;50.842;4.386;2023-02-01T15:14:33;11.00;99.90
22526;DHT22;11429;50.842;4.386;2023-02-01T15:17:02;10.90;99.90
22526;DHT22;11429;50.842;4.386;2023-02-01T15:19:29;11.00;99.90
22526;DHT22;11429;50.842;4.386;2023-02-01T15:21:58;11.00;99.90
22526;DHT22;11429;50.842;4.386;2023-02-01T15:24:30;11.00;99.90
22526;DHT22;11429;50.842;4.386;2023-02-01T15:27:03;10.90;99.90
22526;DHT22;11429;50.842;4.386;2023-02-01T15:29:31;10.80;99.90
22526;DHT22;11429;50.842;4.386;2023-02-01T15:31:59;10.70;99.90
22526;DHT22;11429;50.842;4.386;2023-02-01T15:34:44;10.60;99.90
22526;DHT22;11429;50.842;4.386;2023-02-01T15:37:16;10.60;99.90
22526;DHT22;11429;50.842;4.386;2023-02-01T15:40:04;10.50;99.90
22526;DHT22;11429;50.842;4.386;2023-02-01T15:42:30;10.50;99.90
22526;DHT22;11429;50.842;4.386;2023-02-01T15:44:57;10.60;99.90
22526;DHT22;11429;50.842;4.386;2023-02-01T15:47:28;10.70;99.90
22526;DHT22;11429;50.842;4.386;2023-02-01T15:49:57;10.60;99.90
22526;DHT22;11429;50.842;4.386;2023-02-01T15:52:36;10.40;99.90
22526;DHT22;11429;50.842;4.386;2023-02-01T15:55:16;10.40;99.90
22526;DHT22;11429;50.842;4.386;2023-02-01T15:57:43;10.40;99.90
22526;DHT22;11429;50.842;4.386;2023-02-01T16:00:22;10.30;99.90
22526;DHT22;11429;50.842;4.386;2023-02-01T16:03:00;10.30;99.90
22526;DHT22;11429;50.842;4.386;2023-02-01T16:05:38;10.40;99.90
22526;DHT22;11429;50.842;4.386;2023-02-01T16:08:15;10.40;99.90
22526;DHT22;11429;50.842;4.386;2023-02-01T16:10:46;10.50;99.90
22526;DHT22;11429;50.842;4.386;2023-02-01T16:13:14;10.50;99.90
22526;DHT22;11429;50.842;4.386;2023-02-01T16:15:40;10.40;99.90
22526;DHT22;11429;50.842;4.386;2023-02-01T16:18:06;10.40;99.90
22526;DHT22;11429;50.842;4.386;2023-02-01T16:20:36;10.50;99.90
22526;DHT22;11429;50.842;4.386;2023-02-01T16:23:03;10.40;99.90
22526;DHT22;11429;50.842;4.386;2023-02-01T16:25:28;10.40;99.90
22526;DHT22;11429;50.842;4.386;2023-02-01T16:27:54;10.30;99.90
22526;DHT22;11429;50.842;4.386;2023-02-01T16:30:20;10.40;99.90
22526;DHT22;11429;50.842;4.386;2023-02-01T16:32:55;10.40;99.90
22526;DHT22;11429;50.842;4.386;2023-02-01T16:35:24;10.20;99.90
22526;DHT22;11429;50.842;4.386;2023-02-01T16:37:50;10.20;99.90
22526;DHT22;11429;50.842;4.386;2023-02-01T16:40:17;10.10;99.90
22526;DHT22;11429;50.842;4.386;2023-02-01T16:42:46;10.00;99.90
22526;DHT22;11429;50.842;4.386;2023-02-01T16:45:13;10.20;99.90
22526;DHT22;11429;50.842;4.386;2023-02-01T16:47:46;10.20;99.90
22526;DHT22;11429;50.842;4.386;2023-02-01T16:50:18;10.10;99.90
22526;DHT22;11429;50.842;4.386;2023-02-01T16:52:45;10.10;99.90
22526;DHT22;11429;50.842;4.386;2023-02-01T16:55:16;10.10;99.90
22526;DHT22;11429;50.842;4.386;2023-02-01T16:57:42;10.20;99.90
22526;DHT22;11429;50.842;4.386;2023-02-01T17:00:09;10.10;99.90
22526;DHT22;11429;50.842;4.386;2023-02-01T17:02:35;10.20;99.90
22526;DHT22;11429;50.842;4.386;2023-02-01T17:05:01;10.20;99.90
22526;DHT22;11429;50.842;4.386;2023-02-01T17:07:27;10.00;99.90
22526;DHT22;11429;50.842;4.386;2023-02-01T17:09:53;10.00;99.90
22526;DHT22;11429;50.842;4.386;2023-02-01T17:12:27;9.90;99.90
22526;DHT22;11429;50.842;4.386;2023-02-01T17:14:54;9.90;99.90
22526;DHT22;11429;50.842;4.386;2023-02-01T17:17:21;9.80;99.90
22526;DHT22;11429;50.842;4.386;2023-02-01T17:19:49;9.80;99.90
22526;DHT22;11429;50.842;4.386;2023-02-01T17:22:18;9.90;99.90
22526;DHT22;11429;50.842;4.386;2023-02-01T17:24:44;9.90;99.90
22526;DHT22;11429;50.842;4.386;2023-02-01T17:27:10;9.80;99.90
22526;DHT22;11429;50.842;4.386;2023-02-01T17:29:35;9.70;99.90
22526;DHT22;11429;50.842;4.386;2023-02-01T17:32:02;9.80;99.90
22526;DHT22;11429;50.842;4.386;2023-02-01T17:34:28;9.90;99.90
22526;DHT22;11429;50.842;4.386;2023-02-01T17:36:54;9.70;99.90
22526;DHT22;11429;50.842;4.386;2023-02-01T17:39:20;9.90;99.90
22526;DHT22;11429;50.842;4.386;2023-02-01T17:42:05;9.80;99.90
22526;DHT22;11429;50.842;4.386;2023-02-01T17:44:33;9.80;99.90
22526;DHT22;11429;50.842;4.386;2023-02-01T17:46:59;9.80;99.90
22526;DHT22;11429;50.842;4.386;2023-02-01T17:49:25;9.80;99.90
22526;DHT22;11429;50.842;4.386;2023-02-01T17:51:53;9.60;99.90
22526;DHT22;11429;50.842;4.386;2023-02-01T17:54:19;9.60;99.90
22526;DHT22;11429;50.842;4.386;2023-02-01T17:56:45;9.50;99.90
22526;DHT22;11429;50.842;4.386;2023-02-01T17:59:13;9.50;99.90
22526;DHT22;11429;50.842;4.386;2023-02-01T18:01:39;9.70;99.90
22526;DHT22;11429;50.842;4.386;2023-02-01T18:04:07;9.50;99.90
22526;DHT22;11429;50.842;4.386;2023-02-01T18:06:34;9.60;99.90
22526;DHT22;11429;50.842;4.386;2023-02-01T18:09:00;9.60;99.90
22526;DHT22;11429;50.842;4.386;2023-02-01T18:11:26;9.60;99.90
22526;DHT22;11429;50.842;4.386;2023-02-01T18:13:54;9.60;99.90
22526;DHT22;11429;50.842;4.386;2023-02-01T18:16:23;9.60;99.90
22526;DHT22;11429;50.842;4.386;2023-02-01T18:18:49;9.60;99.90
22526;DHT22;11429;50.842;4.386;2023-02-01T18:21:16;9.50;99.90